createdAt,value
2023-04-26T00:01:17.461Z,99782.44
2023-04-26T00:04:20.290Z,99821.88
2023-04-26T00:07:24.992Z,99803.13
2023-04-26T00:10:27.365Z,99832.03
2023-04-26T00:13:29.888Z,99801.53
2023-04-26T00:16:32.421Z,99799.97
2023-04-26T00:19:34.859Z,99805.06
2023-04-26T00:22:37.898Z,99802.34
2023-04-26T00:25:40.576Z,99817.16
2023-04-26T00:28:42.940Z,99811.25
2023-04-26T00:31:45.408Z,99821.03
2023-04-26T00:34:48.668Z,99850.72
2023-04-26T00:37:53.396Z,99826.88
2023-04-26T00:40:56.155Z,99845.22
2023-04-26T00:43:58.561Z,99827.22
2023-04-26T00:47:01.710Z,99840.47
2023-04-26T00:50:04.777Z,99850.63
2023-04-26T00:53:08.448Z,99867.03
2023-04-26T00:56:12.690Z,99871.72
2023-04-26T00:59:15.180Z,99863.09
2023-04-26T01:02:17.821Z,99883.78
2023-04-26T01:05:21.015Z,99827.53
2023-04-26T01:08:24.231Z,99886.53
2023-04-26T01:11:26.967Z,99864.66
2023-04-26T01:14:29.521Z,99856.84
2023-04-26T01:17:32.290Z,99878.31
2023-04-26T01:20:34.897Z,99861.13
2023-04-26T01:23:37.248Z,99865.00
2023-04-26T01:26:45.839Z,99905.22
2023-04-26T01:29:49.879Z,99874.72
2023-04-26T01:32:52.363Z,99833.31
2023-04-26T01:35:54.824Z,99895.84
2023-04-26T01:38:58.363Z,99885.66
2023-04-26T01:42:00.839Z,99898.53
2023-04-26T01:45:03.599Z,99886.78
2023-04-26T01:48:26.015Z,99866.09
2023-04-26T01:51:28.518Z,99859.81
2023-04-26T01:54:30.970Z,99885.97
2023-04-26T01:57:35.903Z,99915.66
2023-04-26T02:00:38.282Z,99866.78
2023-04-26T02:03:40.884Z,99904.31
2023-04-26T02:06:43.387Z,99889.06
2023-04-26T02:09:46.660Z,99881.19
2023-04-26T02:12:49.107Z,99875.75
2023-04-26T02:15:51.881Z,99889.03
2023-04-26T02:18:55.187Z,99902.28
2023-04-26T02:21:58.584Z,99897.22
2023-04-26T02:25:01.050Z,99896.44
2023-04-26T02:28:04.394Z,99883.94
2023-04-26T02:31:06.967Z,99905.06
2023-04-26T02:34:09.737Z,99932.78
2023-04-26T02:37:12.151Z,99906.53
2023-04-26T02:40:15.564Z,99897.16
2023-04-26T02:43:18.118Z,99889.69
2023-04-26T02:46:21.169Z,99913.53
2023-04-26T02:49:24.024Z,99916.25
2023-04-26T02:52:27.265Z,99929.94
2023-04-26T02:55:29.768Z,99931.47
2023-04-26T02:58:32.370Z,99918.16
2023-04-26T03:01:35.026Z,99940.00
2023-04-26T03:04:38.477Z,99937.66
2023-04-26T03:07:40.925Z,99920.03
2023-04-26T03:10:46.068Z,99939.22
2023-04-26T03:13:48.562Z,99943.88
2023-04-26T03:16:51.338Z,99959.53
2023-04-26T03:19:53.962Z,99938.72
2023-04-26T03:22:56.529Z,99954.75
2023-04-26T03:25:59.035Z,99966.50
2023-04-26T03:29:03.489Z,99959.78
2023-04-26T03:32:07.375Z,99964.88
2023-04-26T03:35:10.622Z,99965.22
2023-04-26T03:38:13.297Z,99964.44
2023-04-26T03:41:16.873Z,99965.59
2023-04-26T03:44:19.475Z,99966.41
2023-04-26T03:47:21.879Z,99974.94
2023-04-26T03:50:25.029Z,99965.59
2023-04-26T03:53:27.724Z,99971.06
2023-04-26T03:56:30.205Z,99976.53
2023-04-26T03:59:32.934Z,99967.09
2023-04-26T04:02:35.675Z,99966.25
2023-04-26T04:05:38.422Z,99985.03
2023-04-26T04:08:41.028Z,99975.28
2023-04-26T04:11:45.160Z,100016.09
2023-04-26T04:14:48.890Z,100004.50
2023-04-26T04:17:52.049Z,100023.41
2023-04-26T04:20:54.629Z,100028.66
2023-04-26T04:23:57.094Z,99987.69
2023-04-26T04:27:01.268Z,99992.88
2023-04-26T04:30:10.028Z,100016.81
2023-04-26T04:33:12.939Z,100014.53
2023-04-26T04:36:16.951Z,100005.13
2023-04-26T04:39:20.711Z,99999.25
2023-04-26T04:42:23.634Z,100008.97
2023-04-26T04:45:27.129Z,100014.00
2023-04-26T04:48:31.220Z,100022.53
2023-04-26T04:51:33.715Z,99989.72
2023-04-26T04:54:36.398Z,100017.03
2023-04-26T04:57:40.615Z,100062.34
2023-04-26T05:00:45.788Z,100063.13
2023-04-26T05:03:56.012Z,100067.47
2023-04-26T05:06:59.246Z,100077.66
2023-04-26T05:10:02.164Z,100066.31
2023-04-26T05:13:06.113Z,100058.91
2023-04-26T05:16:09.194Z,100077.31
2023-04-26T05:19:13.455Z,100059.75
2023-04-26T05:22:18.802Z,100059.38
2023-04-26T05:25:22.685Z,100075.41
2023-04-26T05:28:29.814Z,100061.34
2023-04-26T05:31:53.632Z,100099.63
2023-04-26T05:35:28.266Z,100056.69
2023-04-26T05:38:30.833Z,100065.66
2023-04-26T05:41:33.388Z,100083.63
2023-04-26T05:44:36.175Z,100096.53
2023-04-26T05:47:39.527Z,100106.31
2023-04-26T05:50:42.334Z,100105.13
2023-04-26T05:53:45.218Z,100111.00
2023-04-26T05:56:47.814Z,100105.16
2023-04-26T05:59:50.577Z,100107.50
2023-04-26T06:02:56.173Z,100105.94
2023-04-26T06:05:59.690Z,100095.00
2023-04-26T06:09:04.886Z,100111.78
2023-04-26T06:12:10.180Z,100063.31
2023-04-26T06:15:16.497Z,100120.66
2023-04-26T06:18:19.770Z,100133.50
2023-04-26T06:21:26.481Z,100111.91
2023-04-26T06:24:30.235Z,100131.34
2023-04-26T06:27:32.687Z,100121.84
2023-04-26T06:30:35.347Z,100130.69
2023-04-26T06:33:38.962Z,100130.94
2023-04-26T06:36:41.383Z,100129.69
2023-04-26T06:39:44.098Z,100141.19
2023-04-26T06:42:47.653Z,100136.31
2023-04-26T06:46:11.376Z,100136.88
2023-04-26T06:49:15.229Z,100133.19
2023-04-26T06:52:17.917Z,100127.41
2023-04-26T06:55:21.408Z,100126.13
2023-04-26T06:58:24.283Z,100115.28
2023-04-26T07:01:33.946Z,100139.53
2023-04-26T07:04:36.936Z,100145.97
2023-04-26T07:07:39.730Z,100120.16
2023-04-26T07:10:43.311Z,100154.38
2023-04-26T07:17:03.922Z,100147.50
2023-04-26T07:20:08.947Z,100138.03
2023-04-26T07:23:11.322Z,100154.19
2023-04-26T07:26:13.709Z,100157.91
2023-04-26T07:29:16.555Z,100169.06
2023-04-26T07:32:18.934Z,100172.53
2023-04-26T07:35:21.400Z,100172.06
2023-04-26T07:38:25.384Z,100161.16
2023-04-26T07:41:27.804Z,100155.28
2023-04-26T07:44:30.284Z,100200.63
2023-04-26T07:47:32.957Z,100176.00
2023-04-26T07:50:35.800Z,100196.13
2023-04-26T07:53:41.509Z,100170.50
2023-04-26T07:56:44.257Z,100183.09
2023-04-26T07:59:46.674Z,100200.63
2023-04-26T08:02:49.338Z,100199.81
2023-04-26T08:05:51.943Z,100208.88
2023-04-26T08:08:54.515Z,100181.69
2023-04-26T08:11:57.440Z,100198.72
2023-04-26T08:15:05.044Z,100208.72
2023-04-26T08:18:07.599Z,100214.53
2023-04-26T08:21:09.999Z,100218.38
2023-04-26T08:24:12.564Z,100208.41
2023-04-26T08:27:15.026Z,100215.66
2023-04-26T08:30:17.629Z,100214.28
2023-04-26T08:33:20.171Z,100217.50
2023-04-26T08:36:22.681Z,100199.19
2023-04-26T08:39:25.333Z,100221.16
2023-04-26T08:42:28.741Z,100202.84
2023-04-26T08:45:31.750Z,100220.91
2023-04-26T08:48:34.646Z,100208.84
2023-04-26T08:54:42.812Z,100213.22
2023-04-26T08:57:47.340Z,100220.00
2023-04-26T09:00:50.716Z,100237.66
2023-04-26T09:03:55.322Z,100219.25
2023-04-26T09:07:02.789Z,100239.28
2023-04-26T09:10:06.410Z,100228.31
2023-04-26T09:13:08.813Z,100226.03
2023-04-26T09:16:11.923Z,100218.28
2023-04-26T09:19:40.043Z,100228.88
2023-04-26T09:22:53.211Z,100225.38
2023-04-26T09:26:15.073Z,100176.97
2023-04-26T09:29:19.214Z,100228.16
2023-04-26T09:32:21.752Z,100191.06
2023-04-26T09:35:31.850Z,100234.88
2023-04-26T09:38:42.429Z,100205.16
2023-04-26T09:41:47.873Z,100213.34
2023-04-26T09:44:53.362Z,100220.78
2023-04-26T09:47:56.279Z,100223.16
2023-04-26T09:51:05.575Z,100213.81
2023-04-26T09:54:08.033Z,100215.38
2023-04-26T09:57:12.086Z,100213.06
2023-04-26T10:00:16.252Z,100210.31
2023-04-26T10:03:23.379Z,100212.28
2023-04-26T10:06:28.665Z,100218.16
2023-04-26T10:09:31.870Z,100201.34
2023-04-26T10:12:34.459Z,100208.41
2023-04-26T10:15:37.248Z,100215.47
2023-04-26T10:18:39.628Z,100228.06
2023-04-26T10:21:44.144Z,100246.88
2023-04-26T10:24:46.962Z,100229.66
2023-04-26T10:27:50.117Z,100230.06
2023-04-26T10:30:59.928Z,100225.75
2023-04-26T10:34:21.656Z,100228.16
2023-04-26T10:37:24.156Z,100226.94
2023-04-26T10:40:38.979Z,100237.38
2023-04-26T10:43:43.034Z,100226.72
2023-04-26T10:46:51.494Z,100220.38
2023-04-26T10:50:06.190Z,100208.47
2023-04-26T10:53:14.846Z,100229.34
2023-04-26T10:56:23.605Z,100229.59
2023-04-26T11:02:52.377Z,100236.84
2023-04-26T11:05:55.859Z,100229.75
2023-04-26T11:09:00.135Z,100230.06
2023-04-26T11:12:12.903Z,100224.50
2023-04-26T11:15:15.439Z,100226.00
2023-04-26T11:18:21.093Z,100222.84
2023-04-26T11:21:23.553Z,100217.34
2023-04-26T11:24:27.167Z,100236.09
2023-04-26T11:27:29.485Z,100236.81
2023-04-26T11:30:40.430Z,100223.59
2023-04-26T11:33:42.831Z,100202.75
2023-04-26T11:36:46.525Z,100226.16
2023-04-26T11:39:49.052Z,100222.59
2023-04-26T11:42:51.396Z,100224.50
2023-04-26T11:45:59.057Z,100243.63
2023-04-26T11:49:01.470Z,100229.47
2023-04-26T11:52:05.315Z,100229.00
2023-04-26T11:55:08.275Z,100213.81
2023-04-26T11:58:12.953Z,100221.56
2023-04-26T12:01:26.667Z,100222.28
2023-04-26T12:04:30.794Z,100237.56
2023-04-26T12:07:39.721Z,100237.66
2023-04-26T12:10:42.375Z,100249.31
2023-04-26T12:13:46.649Z,100236.53
2023-04-26T12:16:49.304Z,100246.94
2023-04-26T12:19:51.870Z,100234.63
2023-04-26T12:23:01.748Z,100229.50
2023-04-26T12:26:04.979Z,100230.34
2023-04-26T12:29:07.588Z,100233.78
2023-04-26T12:32:10.050Z,100236.25
2023-04-26T12:35:12.433Z,100225.38
2023-04-26T12:38:15.869Z,100231.28
2023-04-26T12:41:18.329Z,100240.78
2023-04-26T12:44:22.525Z,100237.31
2023-04-26T12:47:25.317Z,100251.09
2023-04-26T12:50:27.793Z,100254.69
2023-04-26T12:53:30.356Z,100255.88
2023-04-26T12:56:34.177Z,100255.56
2023-04-26T12:59:36.576Z,100263.41
2023-04-26T13:02:39.147Z,100263.03
2023-04-26T13:05:41.612Z,100266.19
2023-04-26T13:08:43.965Z,100251.72
2023-04-26T13:11:46.939Z,100256.44
2023-04-26T13:14:49.394Z,100260.38
2023-04-26T13:17:51.869Z,100261.19
2023-04-26T13:20:54.437Z,100277.66
2023-04-26T13:23:56.950Z,100278.84
2023-04-26T13:26:59.714Z,100284.34
2023-04-26T13:30:02.174Z,100281.59
2023-04-26T13:33:04.924Z,100275.34
2023-04-26T13:36:07.641Z,100294.53
2023-04-26T13:39:10.320Z,100289.06
2023-04-26T13:42:14.252Z,100285.94
2023-04-26T13:45:18.768Z,100289.06
2023-04-26T13:48:21.899Z,100268.31
2023-04-26T13:51:27.486Z,100287.88
2023-04-26T13:54:30.685Z,100280.06
2023-04-26T13:57:33.041Z,100296.88
2023-04-26T14:00:35.777Z,100279.19
2023-04-26T14:03:38.288Z,100297.09
2023-04-26T14:06:41.129Z,100295.44
2023-04-26T14:09:43.529Z,100289.88
2023-04-26T14:12:46.122Z,100289.41
2023-04-26T14:15:48.551Z,100279.53
2023-04-26T14:18:51.618Z,100296.00
2023-04-26T14:21:55.411Z,100278.50
2023-04-26T14:24:57.861Z,100294.59
2023-04-26T14:28:01.403Z,100291.50
2023-04-26T14:31:03.950Z,100297.88
2023-04-26T14:34:06.921Z,100301.06
2023-04-26T14:37:09.385Z,100300.72
2023-04-26T14:40:12.263Z,100314.44
2023-04-26T14:43:14.627Z,100312.91
2023-04-26T14:46:17.140Z,100315.69
2023-04-26T14:49:19.938Z,100317.66
2023-04-26T14:52:26.921Z,100317.63
2023-04-26T14:55:29.560Z,100318.03
2023-04-26T14:58:31.948Z,100318.03
2023-04-26T15:01:34.474Z,100322.72
2023-04-26T15:04:38.026Z,100318.03
2023-04-26T15:07:40.896Z,100323.91
2023-04-26T15:10:43.312Z,100315.69
2023-04-26T15:13:46.158Z,100327.84
2023-04-26T15:16:48.680Z,100307.50
2023-04-26T15:19:51.166Z,100325.50
2023-04-26T15:22:53.569Z,100325.50
2023-04-26T15:25:56.438Z,100327.84
2023-04-26T15:29:24.187Z,100330.97
2023-04-26T15:32:26.824Z,100333.72
2023-04-26T15:35:29.332Z,100330.19
2023-04-26T15:38:32.124Z,100340.38
2023-04-26T15:41:34.613Z,100319.22
2023-04-26T15:44:37.062Z,100300.44
2023-04-26T15:47:39.568Z,100327.44
2023-04-26T15:50:42.180Z,100332.50
2023-04-26T15:53:44.590Z,100341.91
2023-04-26T15:56:47.208Z,100331.69
2023-04-26T15:59:49.546Z,100330.50
2023-04-26T16:02:52.181Z,100339.09
2023-04-26T16:05:54.662Z,100307.34
2023-04-26T16:08:57.132Z,100338.31
2023-04-26T16:11:59.484Z,100349.25
2023-04-26T16:15:01.814Z,100340.63
2023-04-26T16:18:04.365Z,100345.31
2023-04-26T16:21:09.541Z,100359.81
2023-04-26T16:24:12.416Z,100359.03
2023-04-26T16:27:14.880Z,100356.66
2023-04-26T16:30:18.985Z,100355.47
2023-04-26T16:33:23.213Z,100350.34
2023-04-26T16:36:25.917Z,100369.94
2023-04-26T16:39:28.754Z,100360.53
2023-04-26T16:42:31.130Z,100375.78
2023-04-26T16:45:33.472Z,100378.91
2023-04-26T16:48:37.210Z,100366.72
2023-04-26T16:51:39.660Z,100381.22
2023-04-26T16:54:42.199Z,100388.63
2023-04-26T16:57:44.602Z,100389.00
2023-04-26T17:00:47.255Z,100391.31
2023-04-26T17:03:49.803Z,100405.00
2023-04-26T17:06:52.348Z,100398.34
2023-04-26T17:09:55.395Z,100389.28
2023-04-26T17:12:57.805Z,100402.59
2023-04-26T17:16:00.289Z,100398.69
2023-04-26T17:19:02.657Z,100404.91
2023-04-26T17:22:06.341Z,100406.88
2023-04-26T17:25:09.050Z,100395.44
2023-04-26T17:28:11.769Z,100413.88
2023-04-26T17:31:14.174Z,100407.59
2023-04-26T17:34:17.072Z,100416.16
2023-04-26T17:37:19.571Z,100422.03
2023-04-26T17:40:21.972Z,100413.38
2023-04-26T17:43:24.382Z,100429.00
2023-04-26T17:46:26.742Z,100424.69
2023-04-26T17:49:29.300Z,100422.69
2023-04-26T17:52:32.173Z,100439.06
2023-04-26T17:55:34.680Z,100444.94
2023-04-26T17:58:37.131Z,100453.09
2023-04-26T18:01:39.528Z,100438.94
2023-04-26T18:04:42.844Z,100440.50
2023-04-26T18:07:45.546Z,100446.38
2023-04-26T18:10:48.691Z,100447.50
2023-04-26T18:13:51.156Z,100440.41
2023-04-26T18:16:53.726Z,100467.81
2023-04-26T18:19:56.514Z,100473.66
2023-04-26T18:22:58.886Z,100466.59
2023-04-26T18:26:01.231Z,100455.94
2023-04-26T18:29:03.629Z,100471.22
2023-04-26T18:32:06.038Z,100466.44
2023-04-26T18:35:09.613Z,100468.41
2023-04-26T18:38:11.997Z,100485.63
2023-04-26T18:41:14.374Z,100493.41
2023-04-26T18:44:16.946Z,100490.25
2023-04-26T18:47:19.294Z,100496.88
2023-04-26T18:50:21.906Z,100500.75
2023-04-26T18:53:24.458Z,100508.53
2023-04-26T18:56:27.947Z,100491.22
2023-04-26T18:59:30.570Z,100512.38
2023-04-26T19:02:34.450Z,100523.69
2023-04-26T19:05:42.185Z,100513.00
2023-04-26T19:08:45.130Z,100534.56
2023-04-26T19:11:47.709Z,100508.66
2023-04-26T19:14:50.264Z,100517.31
2023-04-26T19:17:52.803Z,100528.66
2023-04-26T19:20:55.684Z,100524.31
2023-04-26T19:23:58.606Z,100525.84
2023-04-26T19:27:02.883Z,100532.09
2023-04-26T19:30:06.952Z,100515.94
2023-04-26T19:33:09.473Z,100527.31
2023-04-26T19:36:12.056Z,100521.81
2023-04-26T19:39:16.170Z,100529.59
2023-04-26T19:42:19.337Z,100548.38
2023-04-26T19:45:22.742Z,100558.88
2023-04-26T19:48:26.390Z,100550.97
2023-04-26T19:51:28.974Z,100546.22
2023-04-26T19:54:32.401Z,100565.41
2023-04-26T19:57:35.001Z,100543.00
2023-04-26T20:00:38.696Z,100569.31
2023-04-26T20:03:41.610Z,100570.47
2023-04-26T20:06:44.297Z,100569.63
2023-04-26T20:09:46.790Z,100579.75
2023-04-26T20:12:49.670Z,100568.28
2023-04-26T20:15:52.258Z,100569.44
2023-04-26T20:18:54.839Z,100563.56
2023-04-26T20:21:57.353Z,100568.63
2023-04-26T20:24:59.887Z,100580.72
2023-04-26T20:28:04.077Z,100569.72
2023-04-26T20:31:06.699Z,100572.50
2023-04-26T20:34:09.002Z,100585.78
2023-04-26T20:37:11.921Z,100570.41
2023-04-26T20:40:14.357Z,100595.50
2023-04-26T20:43:16.840Z,100577.38
2023-04-26T20:46:19.250Z,100593.50
2023-04-26T20:49:21.680Z,100586.72
2023-04-26T20:52:24.091Z,100586.66
2023-04-26T20:55:26.869Z,100600.41
2023-04-26T20:58:29.919Z,100584.31
2023-04-26T21:01:33.894Z,100589.44
2023-04-26T21:04:38.684Z,100589.81
2023-04-26T21:07:41.424Z,100596.44
2023-04-26T21:10:43.822Z,100596.00
2023-04-26T21:13:47.090Z,100595.16
2023-04-26T21:16:49.395Z,100593.47
2023-04-26T21:19:53.681Z,100605.22
2023-04-26T21:22:56.132Z,100605.66
2023-04-26T21:25:58.503Z,100609.16
2023-04-26T21:29:01.120Z,100592.94
2023-04-26T21:32:03.847Z,100601.19
2023-04-26T21:35:07.552Z,100614.53
2023-04-26T21:38:09.914Z,100620.75
2023-04-26T21:41:12.309Z,100618.34
2023-04-26T21:44:14.681Z,100617.50
2023-04-26T21:47:17.073Z,100624.59
2023-04-26T21:50:19.649Z,100615.38
2023-04-26T21:53:21.992Z,100625.97
2023-04-26T21:56:24.377Z,100625.97
2023-04-26T21:59:26.781Z,100631.88
2023-04-26T22:02:29.266Z,100639.31
2023-04-26T22:05:31.655Z,100642.78
2023-04-26T22:08:34.736Z,100645.00
2023-04-26T22:11:37.197Z,100650.53
2023-04-26T22:14:39.499Z,100648.53
2023-04-26T22:17:41.892Z,100648.47
2023-04-26T22:20:44.314Z,100663.75
2023-04-26T22:23:46.655Z,100646.81
2023-04-26T22:26:49.053Z,100649.78
2023-04-26T22:29:51.444Z,100661.69
2023-04-26T22:32:55.629Z,100666.34
2023-04-26T22:35:59.294Z,100665.50
2023-04-26T22:39:01.896Z,100669.06
2023-04-26T22:42:04.328Z,100662.69
2023-04-26T22:45:07.873Z,100664.69
2023-04-26T22:48:10.250Z,100673.19
2023-04-26T22:51:12.661Z,100669.72
2023-04-26T22:54:15.007Z,100663.78
2023-04-26T22:57:18.482Z,100667.66
2023-04-26T23:00:22.076Z,100673.97
2023-04-26T23:03:24.984Z,100660.94
2023-04-26T23:06:28.082Z,100655.84
2023-04-26T23:09:30.462Z,100676.56
2023-04-26T23:12:33.448Z,100660.06
2023-04-26T23:15:35.789Z,100672.19
2023-04-26T23:18:38.116Z,100679.16
2023-04-26T23:21:40.673Z,100675.22
2023-04-26T23:24:42.991Z,100692.44
2023-04-26T23:27:45.742Z,100699.03
2023-04-26T23:30:48.639Z,100680.97
2023-04-26T23:33:51.162Z,100703.63
2023-04-26T23:36:53.525Z,100689.78
2023-04-26T23:39:55.876Z,100702.41
2023-04-26T23:42:58.217Z,100695.59
2023-04-26T23:46:00.599Z,100709.38
2023-04-26T23:49:02.991Z,100708.56
2023-04-26T23:52:05.470Z,100700.75
2023-04-26T23:55:08.229Z,100704.63
2023-04-26T23:58:10.580Z,100700.22
